Time;durP1;ratioP1;P1;durP2;ratioP2;P2;SDS_P1;SDS_P2;PMS_P1;PMS_P2;Temp;Humidity;BMP_temperature;BMP_pressure;BME280_temperature;BME280_humidity;BME280_pressure;Samples;Min_cycle;Max_cycle;Signal;HPM_P1;HPM_P2
2021/03/14 00:01:42;;;;;;;;;;;21.80;30.10;;;;;;493923;239;2180;-70
2021/03/14 00:03:43;;;;;;;;;;;21.60;30.50;;;;;;493918;239;1213;-70
2021/03/14 00:05:45;;;;;;;;;;;21.70;30.40;;;;;;493911;239;1049;-70
2021/03/14 00:07:46;;;;;;;;;;;21.50;30.40;;;;;;493939;239;943;-70
2021/03/14 00:09:47;;;;;;;;;;;21.50;30.40;;;;;;493945;239;966;-70
2021/03/14 00:11:49;;;;;;;;;;;21.40;30.50;;;;;;494017;239;1136;-70
2021/03/14 00:13:50;;;;;;;;;;;21.40;30.60;;;;;;493967;239;988;-70
2021/03/14 00:15:51;;;;;;;;;;;21.40;30.60;;;;;;493930;239;959;-70
2021/03/14 00:17:52;;;;;;;;;;;21.30;30.70;;;;;;493883;239;1203;-70
2021/03/14 00:19:54;;;;;;;;;;;21.50;30.50;;;;;;493923;239;1066;-70
2021/03/14 00:21:55;;;;;;;;;;;21.50;30.50;;;;;;493883;239;2206;-70
2021/03/14 00:23:56;;;;;;;;;;;21.40;30.40;;;;;;494008;239;1067;-70
2021/03/14 00:25:58;;;;;;;;;;;21.50;30.40;;;;;;494075;239;1040;-70
2021/03/14 00:27:59;;;;;;;;;;;21.50;30.40;;;;;;493989;239;1129;-70
2021/03/14 00:30:00;;;;;;;;;;;21.50;30.30;;;;;;493968;239;1021;-70
2021/03/14 00:32:03;;;;;;;;;;;21.40;30.40;;;;;;493862;239;1031;-70
2021/03/14 00:34:03;;;;;;;;;;;21.40;30.40;;;;;;493968;239;1474;-70
2021/03/14 00:36:04;;;;;;;;;;;21.60;30.40;;;;;;493941;239;1054;-70
2021/03/14 00:38:06;;;;;;;;;;;21.50;30.40;;;;;;493953;239;1054;-70
2021/03/14 00:40:07;;;;;;;;;;;21.50;30.40;;;;;;493910;239;1077;-70
2021/03/14 00:42:08;;;;;;;;;;;21.50;30.50;;;;;;493827;239;2143;-70
2021/03/14 00:44:10;;;;;;;;;;;21.50;30.50;;;;;;493981;239;1028;-70
2021/03/14 00:46:11;;;;;;;;;;;21.50;30.50;;;;;;493942;239;975;-70
2021/03/14 00:48:12;;;;;;;;;;;21.50;30.40;;;;;;494015;239;1157;-70
2021/03/14 00:50:14;;;;;;;;;;;21.50;30.50;;;;;;494083;239;995;-70
2021/03/14 00:52:15;;;;;;;;;;;21.50;30.50;;;;;;493959;239;1061;-70
2021/03/14 00:54:16;;;;;;;;;;;21.60;30.30;;;;;;493959;239;1027;-70
2021/03/14 00:56:18;;;;;;;;;;;21.40;30.50;;;;;;493895;239;1040;-70
2021/03/14 00:58:19;;;;;;;;;;;21.60;30.40;;;;;;494051;239;1089;-70
2021/03/14 01:00:20;;;;;;;;;;;21.50;30.50;;;;;;494116;239;1109;-70
2021/03/14 01:02:22;;;;;;;;;;;21.50;30.50;;;;;;493918;239;2135;-70
2021/03/14 01:04:23;;;;;;;;;;;21.40;30.60;;;;;;494092;239;1153;-70
2021/03/14 01:06:24;;;;;;;;;;;21.30;30.60;;;;;;493903;239;1069;-70
2021/03/14 01:08:26;;;;;;;;;;;21.40;30.70;;;;;;494043;239;1093;-70
2021/03/14 01:10:27;;;;;;;;;;;21.30;30.70;;;;;;493941;239;1063;-70
2021/03/14 01:12:28;;;;;;;;;;;21.40;30.70;;;;;;493943;239;1166;-70
2021/03/14 01:14:29;;;;;;;;;;;21.40;30.70;;;;;;493944;239;1025;-70
2021/03/14 01:16:31;;;;;;;;;;;21.30;30.70;;;;;;493798;239;1069;-70
2021/03/14 01:18:32;;;;;;;;;;;21.30;30.80;;;;;;493979;239;1153;-70
2021/03/14 01:20:33;;;;;;;;;;;21.30;30.90;;;;;;494075;239;1215;-70
2021/03/14 01:22:34;;;;;;;;;;;21.30;30.90;;;;;;494050;239;2139;-70
2021/03/14 01:24:36;;;;;;;;;;;21.20;31.00;;;;;;493977;239;972;-70
2021/03/14 01:26:37;;;;;;;;;;;21.20;31.00;;;;;;493919;239;1273;-70
2021/03/14 01:28:38;;;;;;;;;;;21.20;31.10;;;;;;494100;239;1010;-70
2021/03/14 01:30:40;;;;;;;;;;;21.20;31.00;;;;;;493972;239;1111;-70
2021/03/14 01:32:41;;;;;;;;;;;21.10;31.10;;;;;;493973;239;1033;-70
2021/03/14 01:34:42;;;;;;;;;;;21.00;31.20;;;;;;493978;239;1150;-70
2021/03/14 01:36:43;;;;;;;;;;;21.10;31.20;;;;;;493962;239;1216;-70
2021/03/14 01:38:45;;;;;;;;;;;21.00;31.30;;;;;;494098;239;1047;-70
2021/03/14 01:40:46;;;;;;;;;;;21.00;31.40;;;;;;494044;239;1211;-70
2021/03/14 01:42:47;;;;;;;;;;;21.00;31.40;;;;;;493902;239;2210;-70
2021/03/14 01:44:49;;;;;;;;;;;20.90;31.50;;;;;;493920;239;1090;-70
2021/03/14 01:46:50;;;;;;;;;;;20.90;31.50;;;;;;493920;239;1213;-70
2021/03/14 01:48:51;;;;;;;;;;;20.90;31.60;;;;;;494044;239;1052;-70
2021/03/14 01:50:52;;;;;;;;;;;20.80;31.50;;;;;;493934;239;1187;-70
2021/03/14 01:52:54;;;;;;;;;;;20.90;31.60;;;;;;493967;239;1066;-71
2021/03/14 01:54:55;;;;;;;;;;;21.00;31.50;;;;;;493916;239;1061;-70
2021/03/14 01:56:56;;;;;;;;;;;20.90;31.50;;;;;;493836;239;1144;-70
2021/03/14 01:58:58;;;;;;;;;;;20.80;31.60;;;;;;493973;239;1022;-71
2021/03/14 02:00:59;;;;;;;;;;;20.80;31.70;;;;;;493956;239;1270;-70
2021/03/14 02:03:00;;;;;;;;;;;20.70;31.80;;;;;;493987;239;2178;-70
2021/03/14 02:05:01;;;;;;;;;;;20.70;32.00;;;;;;494037;239;1193;-70
2021/03/14 02:07:03;;;;;;;;;;;20.80;31.80;;;;;;493846;239;1259;-70
2021/03/14 02:09:04;;;;;;;;;;;20.70;31.80;;;;;;494032;239;1040;-70
2021/03/14 02:11:05;;;;;;;;;;;20.70;32.00;;;;;;493901;239;1423;-70
2021/03/14 02:13:06;;;;;;;;;;;20.60;32.10;;;;;;493857;239;1118;-70
2021/03/14 02:15:08;;;;;;;;;;;20.60;32.10;;;;;;493887;239;1002;-70
2021/03/14 02:17:09;;;;;;;;;;;20.50;32.20;;;;;;494001;239;1156;-70
2021/03/14 02:19:11;;;;;;;;;;;20.50;32.30;;;;;;493910;239;1042;-70
2021/03/14 02:21:12;;;;;;;;;;;20.50;32.20;;;;;;493826;239;1160;-70
2021/03/14 02:23:13;;;;;;;;;;;20.50;32.30;;;;;;493860;239;2188;-70
2021/03/14 02:25:14;;;;;;;;;;;20.50;32.30;;;;;;493972;239;1043;-70
2021/03/14 02:27:16;;;;;;;;;;;20.50;32.20;;;;;;493949;239;1196;-71
2021/03/14 02:29:17;;;;;;;;;;;20.50;32.20;;;;;;493938;239;1159;-70
2021/03/14 02:31:18;;;;;;;;;;;20.40;32.20;;;;;;493935;239;1023;-70
2021/03/14 02:33:20;;;;;;;;;;;20.50;32.20;;;;;;493996;239;1161;-70
2021/03/14 02:35:21;;;;;;;;;;;20.60;32.20;;;;;;493925;239;1134;-70
2021/03/14 02:37:22;;;;;;;;;;;20.50;32.20;;;;;;493920;239;1154;-70
2021/03/14 02:39:23;;;;;;;;;;;20.50;32.20;;;;;;493974;239;1034;-70
2021/03/14 02:41:25;;;;;;;;;;;20.50;32.30;;;;;;493840;239;1150;-70
2021/03/14 02:43:26;;;;;;;;;;;20.40;32.30;;;;;;494024;239;2115;-70
2021/03/14 02:45:27;;;;;;;;;;;20.40;32.40;;;;;;494018;239;1065;-70
2021/03/14 02:47:29;;;;;;;;;;;20.40;32.30;;;;;;493871;239;1149;-70
2021/03/14 02:49:30;;;;;;;;;;;20.40;32.30;;;;;;493916;239;1483;-70
2021/03/14 02:51:31;;;;;;;;;;;20.40;32.40;;;;;;493876;239;1272;-70
2021/03/14 02:53:32;;;;;;;;;;;20.40;32.40;;;;;;493952;239;1065;-70
2021/03/14 02:55:34;;;;;;;;;;;20.50;32.10;;;;;;494025;239;961;-70
2021/03/14 02:57:35;;;;;;;;;;;20.30;32.30;;;;;;493991;239;1063;-70
2021/03/14 02:59:36;;;;;;;;;;;20.30;32.30;;;;;;493972;239;1014;-70
2021/03/14 03:01:38;;;;;;;;;;;20.30;32.30;;;;;;493982;239;1099;-70
2021/03/14 03:03:39;;;;;;;;;;;20.30;32.50;;;;;;493983;239;2178;-70
2021/03/14 03:05:40;;;;;;;;;;;20.30;32.40;;;;;;493921;239;1128;-70
2021/03/14 03:07:41;;;;;;;;;;;20.20;32.40;;;;;;493921;239;1043;-70
2021/03/14 03:09:43;;;;;;;;;;;20.20;32.50;;;;;;493981;239;979;-70
2021/03/14 03:11:44;;;;;;;;;;;20.40;32.40;;;;;;494029;239;1152;-70
2021/03/14 03:13:45;;;;;;;;;;;20.20;32.40;;;;;;493985;239;1043;-70
2021/03/14 03:15:47;;;;;;;;;;;20.20;32.30;;;;;;494015;239;1067;-70
2021/03/14 03:17:48;;;;;;;;;;;20.30;32.30;;;;;;494022;239;1069;-70
2021/03/14 03:19:49;;;;;;;;;;;20.30;32.40;;;;;;493983;239;1038;-70
2021/03/14 03:21:50;;;;;;;;;;;20.30;32.30;;;;;;493877;239;2160;-70
2021/03/14 03:23:52;;;;;;;;;;;20.30;32.40;;;;;;493917;239;1058;-70
2021/03/14 03:25:53;;;;;;;;;;;20.20;32.50;;;;;;493868;239;1214;-70
2021/03/14 03:27:54;;;;;;;;;;;20.20;32.40;;;;;;493936;239;1133;-70
2021/03/14 03:29:56;;;;;;;;;;;20.20;32.40;;;;;;493873;239;1021;-70
2021/03/14 03:31:57;;;;;;;;;;;20.30;32.30;;;;;;493940;239;1054;-70
2021/03/14 03:33:58;;;;;;;;;;;20.20;32.40;;;;;;493916;239;1047;-70
2021/03/14 03:35:59;;;;;;;;;;;20.30;32.50;;;;;;493966;239;1200;-70
2021/03/14 03:38:01;;;;;;;;;;;20.20;32.40;;;;;;494022;239;940;-70
2021/03/14 03:40:02;;;;;;;;;;;20.30;32.40;;;;;;493985;239;937;-70
2021/03/14 03:42:03;;;;;;;;;;;20.30;32.30;;;;;;493909;239;2195;-70
2021/03/14 03:44:05;;;;;;;;;;;20.30;32.40;;;;;;493968;239;1071;-70
2021/03/14 03:46:06;;;;;;;;;;;20.20;32.40;;;;;;493924;239;1134;-70
2021/03/14 03:48:07;;;;;;;;;;;20.10;32.50;;;;;;493943;239;1052;-70
2021/03/14 03:50:09;;;;;;;;;;;20.20;32.50;;;;;;493945;239;1079;-70
2021/03/14 03:52:10;;;;;;;;;;;20.20;32.50;;;;;;494022;239;1120;-70
2021/03/14 03:54:11;;;;;;;;;;;20.20;32.50;;;;;;493890;239;1319;-70
2021/03/14 03:56:12;;;;;;;;;;;20.30;32.40;;;;;;493976;239;1191;-70
2021/03/14 03:58:14;;;;;;;;;;;20.20;32.40;;;;;;493963;239;1193;-70
2021/03/14 04:00:15;;;;;;;;;;;20.30;32.30;;;;;;493963;239;1139;-70
2021/03/14 04:02:16;;;;;;;;;;;20.30;32.30;;;;;;493875;239;2191;-70
2021/03/14 04:04:18;;;;;;;;;;;20.20;32.30;;;;;;494003;239;1094;-70
2021/03/14 04:06:19;;;;;;;;;;;20.50;31.90;;;;;;494057;237;1331;-70
2021/03/14 04:08:20;;;;;;;;;;;20.50;32.10;;;;;;494038;239;1250;-70
2021/03/14 04:10:21;;;;;;;;;;;20.30;32.20;;;;;;494090;239;1044;-70
2021/03/14 04:12:23;;;;;;;;;;;20.30;32.30;;;;;;493971;239;1159;-70
2021/03/14 04:14:24;;;;;;;;;;;20.30;32.30;;;;;;493953;239;1085;-70
2021/03/14 04:16:25;;;;;;;;;;;20.30;32.30;;;;;;493888;239;1209;-70
2021/03/14 04:18:27;;;;;;;;;;;20.30;32.20;;;;;;493950;239;993;-70
2021/03/14 04:20:28;;;;;;;;;;;20.30;32.30;;;;;;493942;239;1214;-70
2021/03/14 04:22:29;;;;;;;;;;;20.30;32.20;;;;;;493948;239;2164;-70
2021/03/14 04:24:30;;;;;;;;;;;20.30;32.30;;;;;;493989;239;963;-70
2021/03/14 04:26:32;;;;;;;;;;;20.30;32.30;;;;;;493870;239;1163;-70
2021/03/14 04:28:33;;;;;;;;;;;20.20;32.30;;;;;;493980;239;1075;-70
2021/03/14 04:30:34;;;;;;;;;;;20.20;32.30;;;;;;493937;239;1181;-70
2021/03/14 04:32:35;;;;;;;;;;;20.20;32.30;;;;;;493913;239;1258;-70
2021/03/14 04:34:37;;;;;;;;;;;20.20;32.40;;;;;;493941;239;1052;-70
2021/03/14 04:36:38;;;;;;;;;;;20.20;32.30;;;;;;494006;239;1109;-70
2021/03/14 04:38:39;;;;;;;;;;;20.30;32.30;;;;;;493954;239;998;-70
2021/03/14 04:40:41;;;;;;;;;;;20.30;32.30;;;;;;493895;239;1225;-70
2021/03/14 04:42:42;;;;;;;;;;;20.30;32.20;;;;;;493900;239;2143;-70
2021/03/14 04:44:43;;;;;;;;;;;20.20;32.20;;;;;;494119;239;1064;-70
2021/03/14 04:46:45;;;;;;;;;;;20.20;32.20;;;;;;493940;239;1158;-70
2021/03/14 04:48:46;;;;;;;;;;;20.20;32.30;;;;;;493990;239;934;-70
2021/03/14 04:50:47;;;;;;;;;;;20.20;32.20;;;;;;494035;239;1201;-70
2021/03/14 04:52:48;;;;;;;;;;;20.20;32.30;;;;;;493930;239;1135;-70
2021/03/14 04:54:50;;;;;;;;;;;20.10;32.30;;;;;;493904;239;1058;-70
2021/03/14 04:56:51;;;;;;;;;;;20.10;32.20;;;;;;493923;239;981;-70
2021/03/14 04:58:52;;;;;;;;;;;20.00;32.30;;;;;;494067;239;1019;-70
2021/03/14 05:00:53;;;;;;;;;;;20.00;34.90;;;;;;493908;239;1032;-70
2021/03/14 05:02:55;;;;;;;;;;;20.00;36.80;;;;;;493929;239;2186;-70
2021/03/14 05:04:56;;;;;;;;;;;20.00;38.20;;;;;;493940;239;1050;-70
2021/03/14 05:06:57;;;;;;;;;;;20.10;38.50;;;;;;493964;237;1321;-70
2021/03/14 05:08:59;;;;;;;;;;;20.10;38.60;;;;;;493966;239;986;-70
2021/03/14 05:11:00;;;;;;;;;;;20.10;37.60;;;;;;494004;239;1080;-70
2021/03/14 05:13:01;;;;;;;;;;;20.00;37.80;;;;;;493940;239;1211;-70
2021/03/14 05:15:02;;;;;;;;;;;20.00;37.50;;;;;;493956;239;1054;-70
2021/03/14 05:17:04;;;;;;;;;;;20.00;37.40;;;;;;493858;239;1271;-70
2021/03/14 05:19:05;;;;;;;;;;;20.00;37.20;;;;;;493981;239;1081;-70
2021/03/14 05:21:06;;;;;;;;;;;20.00;37.00;;;;;;493948;239;1090;-70
2021/03/14 05:23:08;;;;;;;;;;;19.90;36.90;;;;;;493979;239;2247;-70
2021/03/14 05:25:09;;;;;;;;;;;19.90;36.60;;;;;;493906;239;1075;-70
2021/03/14 05:27:10;;;;;;;;;;;20.00;36.60;;;;;;493931;239;953;-70
2021/03/14 05:29:12;;;;;;;;;;;19.90;36.20;;;;;;493957;239;1043;-70
2021/03/14 05:31:13;;;;;;;;;;;20.00;35.90;;;;;;493925;239;1050;-70
2021/03/14 05:33:14;;;;;;;;;;;20.00;35.90;;;;;;493921;239;1112;-70
2021/03/14 05:35:15;;;;;;;;;;;19.90;35.70;;;;;;493911;239;1047;-70
2021/03/14 05:37:17;;;;;;;;;;;19.90;35.50;;;;;;494058;239;1175;-70
2021/03/14 05:39:18;;;;;;;;;;;19.90;35.50;;;;;;493989;239;1070;-70
2021/03/14 05:41:19;;;;;;;;;;;19.90;35.40;;;;;;493864;239;950;-70
2021/03/14 05:43:21;;;;;;;;;;;19.90;35.30;;;;;;493917;239;2194;-70
2021/03/14 05:45:22;;;;;;;;;;;19.90;35.00;;;;;;493903;239;1047;-70
2021/03/14 05:47:23;;;;;;;;;;;19.90;35.00;;;;;;493906;239;1016;-70
2021/03/14 05:49:24;;;;;;;;;;;20.00;34.90;;;;;;493971;239;1049;-70
2021/03/14 05:51:26;;;;;;;;;;;19.90;34.80;;;;;;493911;239;938;-70
2021/03/14 05:53:27;;;;;;;;;;;19.90;34.70;;;;;;494122;239;1160;-70
2021/03/14 05:55:28;;;;;;;;;;;20.00;34.70;;;;;;493986;239;1057;-70
2021/03/14 05:57:30;;;;;;;;;;;19.90;34.50;;;;;;493937;239;971;-70
2021/03/14 05:59:31;;;;;;;;;;;20.00;34.50;;;;;;493946;239;998;-70
2021/03/14 06:01:32;;;;;;;;;;;19.90;34.50;;;;;;494059;239;1086;-70
2021/03/14 06:03:33;;;;;;;;;;;20.00;34.50;;;;;;493929;239;2186;-70
2021/03/14 06:05:35;;;;;;;;;;;20.10;34.30;;;;;;493948;239;1151;-70
2021/03/14 06:07:36;;;;;;;;;;;20.10;34.10;;;;;;493985;239;1124;-70
2021/03/14 06:09:37;;;;;;;;;;;20.10;34.10;;;;;;493969;239;1019;-70
2021/03/14 06:11:38;;;;;;;;;;;20.10;34.20;;;;;;493865;239;1099;-70
2021/03/14 06:13:40;;;;;;;;;;;20.10;34.30;;;;;;493953;239;954;-70
2021/03/14 06:15:41;;;;;;;;;;;20.10;34.30;;;;;;494007;239;1066;-70
2021/03/14 06:17:42;;;;;;;;;;;20.00;34.50;;;;;;493948;239;1091;-70
2021/03/14 06:19:44;;;;;;;;;;;20.00;34.50;;;;;;493978;239;1047;-70
2021/03/14 06:21:45;;;;;;;;;;;20.10;34.50;;;;;;493874;239;1171;-70
2021/03/14 06:23:46;;;;;;;;;;;20.00;34.50;;;;;;493923;239;2198;-70
2021/03/14 06:25:47;;;;;;;;;;;20.10;34.50;;;;;;493931;239;1198;-70
2021/03/14 06:27:51;;;;;;;;;;;20.00;34.60;;;;;;493860;239;1106;-70
2021/03/14 06:29:53;;;;;;;;;;;20.00;34.70;;;;;;493985;239;979;-70
2021/03/14 06:31:54;;;;;;;;;;;20.00;34.80;;;;;;493942;239;1219;-70
2021/03/14 06:33:55;;;;;;;;;;;20.20;34.50;;;;;;494021;239;1002;-70
2021/03/14 06:35:56;;;;;;;;;;;20.20;34.60;;;;;;493936;239;1227;-70
2021/03/14 06:37:58;;;;;;;;;;;20.20;34.60;;;;;;493897;239;1164;-70
2021/03/14 06:39:59;;;;;;;;;;;20.20;34.60;;;;;;493993;239;959;-70
2021/03/14 06:42:00;;;;;;;;;;;20.20;34.60;;;;;;493840;239;1230;-70
2021/03/14 06:44:02;;;;;;;;;;;20.30;34.60;;;;;;493890;239;2195;-70
2021/03/14 06:46:03;;;;;;;;;;;20.30;34.50;;;;;;493912;239;1159;-70
2021/03/14 06:48:04;;;;;;;;;;;20.40;34.50;;;;;;494033;239;1120;-70
2021/03/14 06:50:05;;;;;;;;;;;20.50;34.50;;;;;;493973;239;1029;-70
2021/03/14 06:52:07;;;;;;;;;;;20.30;34.40;;;;;;493972;239;1039;-70
2021/03/14 06:54:08;;;;;;;;;;;20.30;34.60;;;;;;494068;239;1203;-70
2021/03/14 06:56:09;;;;;;;;;;;20.50;34.40;;;;;;493980;239;1226;-70
2021/03/14 06:58:11;;;;;;;;;;;20.30;34.50;;;;;;493871;239;1107;-70
2021/03/14 07:00:12;;;;;;;;;;;20.30;34.40;;;;;;494021;239;1089;-70
2021/03/14 07:02:13;;;;;;;;;;;20.40;34.50;;;;;;493898;239;1159;-70
2021/03/14 07:04:15;;;;;;;;;;;20.40;34.50;;;;;;493917;239;2148;-70
2021/03/14 07:06:16;;;;;;;;;;;20.30;34.60;;;;;;494028;239;988;-70
2021/03/14 07:08:17;;;;;;;;;;;20.40;34.50;;;;;;493867;239;1162;-70
2021/03/14 07:10:18;;;;;;;;;;;20.30;34.40;;;;;;494011;239;1220;-70
2021/03/14 07:12:20;;;;;;;;;;;20.30;34.50;;;;;;493877;239;1060;-70
2021/03/14 07:14:21;;;;;;;;;;;20.20;34.70;;;;;;493918;239;985;-70
2021/03/14 07:16:22;;;;;;;;;;;20.20;34.70;;;;;;493982;239;1033;-70
2021/03/14 07:18:24;;;;;;;;;;;20.20;34.50;;;;;;493929;239;1034;-70
2021/03/14 07:20:25;;;;;;;;;;;20.30;34.60;;;;;;493902;239;971;-70
2021/03/14 07:22:26;;;;;;;;;;;20.20;34.60;;;;;;493976;239;1067;-70
2021/03/14 07:24:27;;;;;;;;;;;20.10;34.70;;;;;;493922;239;2190;-70
2021/03/14 07:26:29;;;;;;;;;;;20.10;34.80;;;;;;493898;239;1028;-70
2021/03/14 07:28:30;;;;;;;;;;;20.10;34.80;;;;;;493934;239;1051;-70
2021/03/14 07:30:31;;;;;;;;;;;20.10;34.80;;;;;;493944;239;1006;-70
2021/03/14 07:32:33;;;;;;;;;;;20.00;34.80;;;;;;493907;239;1230;-70
2021/03/14 07:34:34;;;;;;;;;;;20.00;34.80;;;;;;493972;239;1142;-70
2021/03/14 07:36:35;;;;;;;;;;;20.00;35.00;;;;;;493903;239;1107;-70
2021/03/14 07:38:36;;;;;;;;;;;19.90;35.00;;;;;;493891;239;1121;-70
2021/03/14 07:40:38;;;;;;;;;;;19.90;35.00;;;;;;493925;239;1033;-70
2021/03/14 07:42:39;;;;;;;;;;;19.90;35.00;;;;;;493703;239;1209;-70
2021/03/14 07:44:40;;;;;;;;;;;19.90;35.00;;;;;;493825;239;2191;-70
2021/03/14 07:46:42;;;;;;;;;;;19.90;35.00;;;;;;493842;239;1473;-70
2021/03/14 07:48:43;;;;;;;;;;;20.00;34.80;;;;;;493969;239;1026;-70
2021/03/14 07:50:45;;;;;;;;;;;20.00;34.70;;;;;;493930;239;1132;-70
2021/03/14 07:52:46;;;;;;;;;;;20.00;34.80;;;;;;493804;239;1050;-70
2021/03/14 07:54:47;;;;;;;;;;;19.90;34.80;;;;;;493918;239;1098;-70
2021/03/14 07:56:49;;;;;;;;;;;20.00;34.80;;;;;;493830;239;1215;-70
2021/03/14 07:58:50;;;;;;;;;;;19.90;35.00;;;;;;493894;239;1021;-70
2021/03/14 08:00:51;;;;;;;;;;;19.80;35.10;;;;;;493819;239;1100;-70
2021/03/14 08:02:52;;;;;;;;;;;19.80;35.10;;;;;;493819;239;961;-70
2021/03/14 08:04:54;;;;;;;;;;;19.90;35.10;;;;;;493853;239;2194;-70
2021/03/14 08:06:55;;;;;;;;;;;19.90;34.90;;;;;;493859;239;1290;-70
2021/03/14 08:08:56;;;;;;;;;;;20.00;35.00;;;;;;493820;239;1116;-70
2021/03/14 08:10:58;;;;;;;;;;;19.90;35.00;;;;;;493835;239;1254;-70
2021/03/14 08:12:59;;;;;;;;;;;19.90;34.90;;;;;;493857;239;1077;-70
2021/03/14 08:15:00;;;;;;;;;;;20.00;34.80;;;;;;493858;239;1042;-70
2021/03/14 08:17:01;;;;;;;;;;;20.20;34.60;;;;;;493838;239;1013;-70
2021/03/14 08:19:03;;;;;;;;;;;20.20;34.60;;;;;;493343;239;1276;-70
2021/03/14 08:21:04;;;;;;;;;;;20.20;34.50;;;;;;489363;242;1066;-69
2021/03/14 08:23:06;;;;;;;;;;;20.30;34.40;;;;;;500346;235;1069;-70
2021/03/14 08:25:07;;;;;;;;;;;20.40;34.20;;;;;;482627;244;2148;-70
2021/03/14 08:27:08;;;;;;;;;;;20.40;34.20;;;;;;489418;240;1164;-70
2021/03/14 08:29:09;;;;;;;;;;;20.50;34.10;;;;;;496583;239;1041;-70
2021/03/14 08:31:11;;;;;;;;;;;20.50;34.10;;;;;;490747;241;1312;-70
2021/03/14 08:33:12;;;;;;;;;;;20.50;33.90;;;;;;488809;243;1100;-70
2021/03/14 08:35:13;;;;;;;;;;;20.60;33.80;;;;;;496056;239;1035;-70
2021/03/14 08:37:15;;;;;;;;;;;20.60;33.60;;;;;;496066;240;1163;-70
2021/03/14 08:39:16;;;;;;;;;;;20.70;33.60;;;;;;504547;236;1190;-70
2021/03/14 08:41:17;;;;;;;;;;;20.60;33.80;;;;;;505380;234;1271;-70
2021/03/14 08:43:18;;;;;;;;;;;20.70;33.70;;;;;;504651;236;1054;-70
2021/03/14 08:45:20;;;;;;;;;;;20.60;33.80;;;;;;505490;236;2161;-70
2021/03/14 08:47:21;;;;;;;;;;;20.70;33.80;;;;;;490751;242;1183;-70
2021/03/14 08:49:22;;;;;;;;;;;20.70;33.60;;;;;;496662;240;1001;-70
2021/03/14 08:51:24;;;;;;;;;;;20.70;33.80;;;;;;504607;236;1102;-70
2021/03/14 08:53:25;;;;;;;;;;;20.70;33.70;;;;;;505490;234;1072;-70
2021/03/14 08:55:26;;;;;;;;;;;20.70;33.70;;;;;;490796;242;1211;-70
2021/03/14 08:57:28;;;;;;;;;;;20.90;33.50;;;;;;496580;239;1078;-70
2021/03/14 08:59:29;;;;;;;;;;;20.80;33.50;;;;;;504574;236;1131;-70
2021/03/14 09:01:30;;;;;;;;;;;20.80;33.50;;;;;;505331;236;1183;-70
2021/03/14 09:03:32;;;;;;;;;;;20.90;33.50;;;;;;504599;236;1055;-70
2021/03/14 09:05:33;;;;;;;;;;;20.90;33.50;;;;;;505412;236;2170;-70
2021/03/14 09:07:34;;;;;;;;;;;20.80;33.50;;;;;;504604;236;1046;-70
2021/03/14 09:09:36;;;;;;;;;;;20.80;33.50;;;;;;505623;236;1083;-70
2021/03/14 09:11:37;;;;;;;;;;;20.70;33.50;;;;;;490448;242;1169;-70
2021/03/14 09:13:38;;;;;;;;;;;20.70;33.60;;;;;;494204;240;959;-70
2021/03/14 09:15:39;;;;;;;;;;;20.70;33.60;;;;;;503675;236;1180;-70
2021/03/14 09:17:41;;;;;;;;;;;20.80;33.60;;;;;;505793;234;1027;-70
2021/03/14 09:19:42;;;;;;;;;;;20.70;33.50;;;;;;505429;236;1088;-70
2021/03/14 09:21:43;;;;;;;;;;;20.70;33.70;;;;;;505355;236;1108;-70
2021/03/14 09:23:44;;;;;;;;;;;20.70;33.70;;;;;;505446;236;2130;-70
2021/03/14 09:25:46;;;;;;;;;;;20.70;33.60;;;;;;505557;235;1139;-70
2021/03/14 09:27:47;;;;;;;;;;;20.70;33.70;;;;;;505397;235;1147;-70
2021/03/14 09:29:48;;;;;;;;;;;20.70;33.60;;;;;;505403;235;987;-70
2021/03/14 09:31:50;;;;;;;;;;;20.70;33.70;;;;;;505325;236;1050;-70
2021/03/14 09:33:51;;;;;;;;;;;20.70;33.60;;;;;;505468;235;1072;-70
2021/03/14 09:35:52;;;;;;;;;;;20.80;33.60;;;;;;505605;236;1133;-70
2021/03/14 09:37:53;;;;;;;;;;;20.80;33.60;;;;;;505385;236;1094;-70
2021/03/14 09:39:55;;;;;;;;;;;20.80;33.50;;;;;;505325;236;1019;-70
2021/03/14 09:41:56;;;;;;;;;;;20.80;33.50;;;;;;505453;235;1145;-70
2021/03/14 09:43:57;;;;;;;;;;;20.70;33.50;;;;;;505447;235;2145;-70
2021/03/14 09:45:59;;;;;;;;;;;20.90;33.60;;;;;;505501;236;956;-70
2021/03/14 09:48:00;;;;;;;;;;;20.90;33.50;;;;;;505423;235;1076;-70
2021/03/14 09:50:01;;;;;;;;;;;21.00;33.40;;;;;;505386;236;1064;-70
2021/03/14 09:52:02;;;;;;;;;;;21.00;33.40;;;;;;505348;236;990;-70
2021/03/14 09:54:04;;;;;;;;;;;20.90;33.40;;;;;;505430;236;1027;-70
2021/03/14 09:56:05;;;;;;;;;;;21.10;33.40;;;;;;505305;236;1216;-70
2021/03/14 09:58:06;;;;;;;;;;;21.00;33.30;;;;;;505461;236;1009;-70
2021/03/14 10:00:08;;;;;;;;;;;21.10;33.40;;;;;;505432;236;1144;-70
2021/03/14 10:02:09;;;;;;;;;;;21.10;33.40;;;;;;505427;236;1113;-70
2021/03/14 10:04:10;;;;;;;;;;;21.00;33.40;;;;;;505474;236;2185;-70
2021/03/14 10:06:11;;;;;;;;;;;21.00;33.30;;;;;;505435;236;1231;-70
2021/03/14 10:08:13;;;;;;;;;;;21.20;33.30;;;;;;505519;236;1031;-70
2021/03/14 10:10:14;;;;;;;;;;;21.10;33.50;;;;;;505399;236;983;-70
2021/03/14 10:12:15;;;;;;;;;;;21.10;33.60;;;;;;505549;235;1142;-70
2021/03/14 10:14:16;;;;;;;;;;;21.10;33.60;;;;;;505473;236;1009;-70
2021/03/14 10:16:18;;;;;;;;;;;21.20;33.40;;;;;;505360;236;1208;-70
2021/03/14 10:18:19;;;;;;;;;;;21.20;33.40;;;;;;505432;235;998;-70
2021/03/14 10:20:20;;;;;;;;;;;21.20;33.40;;;;;;505413;235;1054;-70
2021/03/14 10:22:22;;;;;;;;;;;21.30;33.30;;;;;;505533;235;1130;-70
2021/03/14 10:24:23;;;;;;;;;;;21.50;33.20;;;;;;505400;236;2190;-70
2021/03/14 10:26:24;;;;;;;;;;;21.40;33.10;;;;;;505478;235;1503;-70
2021/03/14 10:28:26;;;;;;;;;;;21.30;33.30;;;;;;505343;236;1263;-70
2021/03/14 10:30:27;;;;;;;;;;;21.30;33.30;;;;;;505467;235;1125;-70
2021/03/14 10:32:28;;;;;;;;;;;21.30;33.30;;;;;;505353;236;1185;-70
2021/03/14 10:34:29;;;;;;;;;;;21.30;33.30;;;;;;505413;236;1143;-70
2021/03/14 10:36:31;;;;;;;;;;;21.30;33.20;;;;;;505339;235;1056;-70
2021/03/14 10:38:32;;;;;;;;;;;21.30;33.20;;;;;;505374;236;1149;-70
2021/03/14 10:40:33;;;;;;;;;;;21.30;33.10;;;;;;505389;236;972;-70
2021/03/14 10:42:34;;;;;;;;;;;21.40;33.10;;;;;;505398;236;1260;-70
2021/03/14 10:44:36;;;;;;;;;;;21.40;33.10;;;;;;505506;235;2182;-70
2021/03/14 10:46:37;;;;;;;;;;;21.40;33.10;;;;;;505504;235;1004;-70
2021/03/14 10:48:38;;;;;;;;;;;21.30;33.10;;;;;;505478;235;1168;-70
2021/03/14 10:50:40;;;;;;;;;;;21.30;33.00;;;;;;505450;236;1085;-70
2021/03/14 10:52:41;;;;;;;;;;;21.40;32.70;;;;;;505446;235;998;-70
2021/03/14 10:54:42;;;;;;;;;;;21.30;33.10;;;;;;505345;235;1000;-70
2021/03/14 10:56:45;;;;;;;;;;;21.40;33.10;;;;;;505470;235;1156;-70
2021/03/14 10:58:45;;;;;;;;;;;21.30;33.10;;;;;;505452;235;1384;-70
2021/03/14 11:00:46;;;;;;;;;;;21.40;33.10;;;;;;505470;236;998;-70
2021/03/14 11:02:55;;;;;;;;;;;21.40;33.20;;;;;;505501;235;1030;-70
2021/03/14 11:04:50;;;;;;;;;;;21.40;33.10;;;;;;505063;235;2178;-70
2021/03/14 11:06:51;;;;;;;;;;;21.50;33.00;;;;;;505411;235;1127;-70
2021/03/14 11:08:52;;;;;;;;;;;21.50;33.00;;;;;;505435;235;1004;-70
2021/03/14 11:10:54;;;;;;;;;;;21.50;33.00;;;;;;505401;236;1214;-70
2021/03/14 11:12:55;;;;;;;;;;;21.40;33.00;;;;;;505428;235;1173;-70
2021/03/14 11:14:56;;;;;;;;;;;21.50;32.90;;;;;;505409;236;1035;-70
2021/03/14 11:16:57;;;;;;;;;;;21.50;32.80;;;;;;505349;236;1209;-70
2021/03/14 11:18:59;;;;;;;;;;;21.50;32.80;;;;;;505425;236;1037;-70
2021/03/14 11:21:00;;;;;;;;;;;21.60;32.80;;;;;;505342;236;1367;-70
2021/03/14 11:23:01;;;;;;;;;;;21.60;32.70;;;;;;505437;236;950;-70
2021/03/14 11:25:03;;;;;;;;;;;21.60;32.70;;;;;;505430;236;2182;-70
2021/03/14 11:27:04;;;;;;;;;;;21.70;32.70;;;;;;505434;235;1185;-70
2021/03/14 11:29:05;;;;;;;;;;;21.60;32.70;;;;;;505435;235;1007;-70
2021/03/14 11:31:06;;;;;;;;;;;21.60;32.70;;;;;;505449;236;1489;-70
2021/03/14 11:33:08;;;;;;;;;;;21.70;32.70;;;;;;505432;236;959;-70
2021/03/14 11:35:09;;;;;;;;;;;21.70;32.60;;;;;;505480;235;1072;-70
2021/03/14 11:37:10;;;;;;;;;;;21.80;32.50;;;;;;505488;235;981;-70
2021/03/14 11:39:12;;;;;;;;;;;21.70;32.60;;;;;;505448;236;1036;-70
2021/03/14 11:41:13;;;;;;;;;;;21.80;32.40;;;;;;505515;235;1038;-70
2021/03/14 11:43:14;;;;;;;;;;;21.70;32.50;;;;;;505520;235;1380;-70
2021/03/14 11:45:15;;;;;;;;;;;21.70;32.60;;;;;;505490;235;2173;-70
2021/03/14 11:47:17;;;;;;;;;;;21.70;32.60;;;;;;505396;236;1124;-70
2021/03/14 11:49:18;;;;;;;;;;;21.80;32.60;;;;;;505373;236;955;-70
2021/03/14 11:51:19;;;;;;;;;;;21.70;32.50;;;;;;505437;236;1162;-70
2021/03/14 11:53:21;;;;;;;;;;;21.70;32.20;;;;;;505554;236;1040;-70
2021/03/14 11:55:22;;;;;;;;;;;21.80;32.40;;;;;;505447;236;1196;-70
2021/03/14 11:57:23;;;;;;;;;;;21.90;32.40;;;;;;505280;236;1122;-70